Time;durP1;ratioP1;P1;durP2;ratioP2;P2;SDS_P1;SDS_P2;PMS_P1;PMS_P2;Temp;Humidity;BMP_temperature;BMP_pressure;BME280_temperature;BME280_humidity;BME280_pressure;Samples;Min_cycle;Max_cycle;Signal;HPM_P1;HPM_P2
2021/06/18 00:00:16;;;;;;;4.16;2.64;;;;;;;20.40;57.69;99793.98;389778;105;1985990;-72
2021/06/18 00:01:23;;;;;;;7.51;2.78;;;;;;;20.29;57.75;99791.44;369678;107;1961991;-73
2021/06/18 00:02:48;;;;;;;7.51;2.38;;;;;;;20.26;57.76;99790.05;363945;108;1962060;-73
2021/06/18 00:04:02;;;;;;;10.49;3.31;;;;;;;20.34;57.89;99795.03;401719;101;1995012;-73
2021/06/18 00:05:09;;;;;;;5.79;2.66;;;;;;;20.22;57.81;99791.70;379875;103;1962083;-72
2021/06/18 00:06:22;;;;;;;6.26;3.04;;;;;;;20.31;57.88;99784.59;395702;104;1995037;-73
2021/06/18 00:07:27;;;;;;;7.55;2.68;;;;;;;20.19;57.97;99787.58;360482;110;1961977;-73
2021/06/18 00:08:51;;;;;;;6.39;2.71;;;;;;;20.19;57.84;99794.95;305120;109;2424019;-73
2021/06/18 00:10:06;;;;;;;7.29;2.52;;;;;;;20.27;57.98;99788.13;385755;106;1972957;-73
2021/06/18 00:11:11;;;;;;;5.06;2.78;;;;;;;20.08;58.09;99772.13;359793;108;2872989;-73
2021/06/18 00:12:23;;;;;;;5.66;2.58;;;;;;;20.25;58.05;99784.86;390990;104;1985662;-72
2021/06/18 00:13:29;;;;;;;6.98;2.82;;;;;;;20.12;58.03;99783.41;375880;106;1961907;-72
2021/06/18 00:14:41;;;;;;;6.50;2.49;;;;;;;20.21;58.09;99784.55;394696;104;1986982;-74
2021/06/18 00:15:46;;;;;;;5.19;2.47;;;;;;;20.08;58.12;99779.54;372512;107;1962031;-73
2021/06/18 00:17:00;;;;;;;7.82;3.04;;;;;;;20.19;58.21;99781.23;392326;104;1985977;-72
2021/06/18 00:18:06;;;;;;;6.06;2.42;;;;;;;20.07;58.17;99784.20;367621;107;1961946;-71
2021/06/18 00:19:29;;;;;;;5.76;2.49;;;;;;;20.06;58.16;99784.45;341817;107;1963001;-74
2021/06/18 00:20:42;;;;;;;8.63;2.57;;;;;;;20.13;58.28;99780.39;390514;104;2072107;-72
2021/06/18 00:21:47;;;;;;;9.96;2.68;;;;;;;20.02;58.28;99784.17;377115;105;1962041;-72
2021/06/18 00:22:53;;;;;;;5.57;2.52;;;;;;;20.00;58.28;99786.34;370868;108;1961993;-71
2021/06/18 00:24:06;;;;;;;5.80;2.43;;;;;;;20.10;58.32;99788.33;341639;106;2131039;-73
2021/06/18 00:25:13;;;;;;;5.67;2.62;;;;;;;19.96;58.33;99786.06;367775;108;1961985;-72
2021/06/18 00:26:26;;;;;;;4.90;2.28;;;;;;;20.05;58.47;99789.13;368967;101;2574006;-72
2021/06/18 00:27:31;;;;;;;7.14;2.62;;;;;;;19.91;58.48;99783.28;359276;104;1961914;-73
2021/06/18 00:28:55;;;;;;;6.76;2.62;;;;;;;19.90;58.49;99783.53;380160;106;1962978;-73
2021/06/18 00:30:11;;;;;;;7.02;2.92;;;;;;;19.98;58.56;99786.63;393200;104;2072014;-73
2021/06/18 00:31:18;;;;;;;7.95;2.93;;;;;;;19.87;58.47;99773.11;305055;107;2351005;-73
2021/06/18 00:32:33;;;;;;;6.07;2.59;;;;;;;19.95;58.51;99778.94;347746;108;2041992;-72
2021/06/18 00:33:38;;;;;;;6.81;2.46;;;;;;;19.84;58.51;99785.42;347542;110;1960894;-72
2021/06/18 00:34:44;;;;;;;5.45;2.59;;;;;;;19.82;58.49;99781.30;362750;110;1961017;-73
2021/06/18 00:35:57;;;;;;;4.86;2.51;;;;;;;19.92;58.56;99782.19;389739;104;2070948;-72
2021/06/18 00:37:04;;;;;;;10.21;2.41;;;;;;;19.81;58.59;99785.14;325366;107;2892027;-72
2021/06/18 00:38:19;;;;;;;5.36;2.58;;;;;;;19.88;58.67;99785.74;379251;104;1985931;-72
2021/06/18 00:39:25;;;;;;;6.78;2.49;;;;;;;19.74;58.59;99777.98;380963;105;1962851;-72
2021/06/18 00:40:37;;;;;;;4.95;2.09;;;;;;;19.84;58.57;99782.69;390497;106;1986020;-72
2021/06/18 00:41:43;;;;;;;7.98;2.78;;;;;;;19.72;58.64;99779.33;372007;107;1964055;-72
2021/06/18 00:43:06;;;;;;;6.66;2.64;;;;;;;19.71;58.51;99783.14;363394;109;1962030;-72
2021/06/18 00:44:18;;;;;;;4.91;2.25;;;;;;;19.79;58.54;99779.91;386075;106;1986079;-73
2021/06/18 00:45:24;;;;;;;5.79;2.47;;;;;;;19.66;58.48;99789.44;366234;109;1963048;-72
2021/06/18 00:46:36;;;;;;;6.66;2.41;;;;;;;19.75;58.48;99778.80;355888;106;2508968;-72
2021/06/18 00:47:52;;;;;;;5.46;2.26;;;;;;;19.63;58.48;99789.91;353946;110;1961875;-73
2021/06/18 00:49:17;;;;;;;6.32;2.46;;;;;;;19.61;58.50;99791.25;362056;109;1963073;-73
2021/06/18 00:50:30;;;;;;;7.37;2.21;;;;;;;19.68;58.68;99789.98;387427;106;1986057;-72
2021/06/18 00:51:35;;;;;;;4.70;2.62;;;;;;;19.56;58.68;99792.06;364823;109;1962057;-72
2021/06/18 00:52:50;;;;;;;5.83;2.56;;;;;;;19.66;58.80;99791.30;403819;101;1987035;-74
2021/06/18 00:53:56;;;;;;;14.16;3.38;;;;;;;19.52;58.73;99789.00;383117;104;1963012;-73
2021/06/18 00:55:19;;;;;;;6.28;2.38;;;;;;;19.51;58.79;99790.10;377650;105;1962960;-73
2021/06/18 00:56:33;;;;;;;5.90;2.36;;;;;;;19.60;58.75;99782.22;374955;108;2072128;-74
2021/06/18 00:57:39;;;;;;;5.76;2.41;;;;;;;19.48;58.80;99779.67;324403;111;1988012;-73
2021/06/18 00:58:52;;;;;;;5.94;2.28;;;;;;;19.58;58.88;99772.60;391628;103;2072101;-73
2021/06/18 00:59:57;;;;;;;5.52;2.69;;;;;;;19.45;58.84;99777.46;372401;107;1969993;-74
2021/06/18 01:01:21;;;;;;;5.32;2.21;;;;;;;19.43;58.81;99770.59;373316;105;1962012;-73
2021/06/18 01:02:35;;;;;;;6.12;2.02;;;;;;;19.52;58.77;99778.05;345592;104;2838057;-72
2021/06/18 01:03:41;;;;;;;4.99;2.46;;;;;;;19.40;58.73;99776.59;355378;106;1963035;-71
2021/06/18 01:04:47;;;;;;;4.91;2.23;;;;;;;19.40;58.75;99771.12;376867;106;1964883;-70
2021/06/18 01:05:59;;;;;;;7.87;2.66;;;;;;;19.50;58.74;99780.24;384430;106;2071900;-73
2021/06/18 01:07:18;;;;;;;6.62;2.22;;;;;;;19.49;58.76;99777.75;354614;104;2423025;-71
2021/06/18 01:08:43;;;;;;;5.69;2.21;;;;;;;19.47;58.78;99774.44;336456;105;2867972;-72
2021/06/18 01:10:15;;;;;;;4.97;2.36;;;;;;;19.35;58.67;99777.38;338960;107;1963062;-72
2021/06/18 01:11:49;;;;;;;6.22;2.33;;;;;;;19.44;58.72;99777.70;338049;104;2404015;-72
2021/06/18 01:13:07;;;;;;;5.16;2.58;;;;;;;19.31;58.67;99776.23;369153;107;1962018;-71
2021/06/18 01:14:52;;;;;;;5.88;2.21;;;;;;;19.28;58.69;99783.05;370749;109;1965087;-72
2021/06/18 01:16:17;;;;;;;5.78;2.24;;;;;;;19.37;58.70;99786.16;393871;104;1986038;-72
2021/06/18 01:17:35;;;;;;;6.18;2.41;;;;;;;19.25;58.64;99788.23;352732;108;2859976;-72
2021/06/18 01:19:10;;;;;;;4.98;2.14;;;;;;;19.36;58.70;99780.93;396281;104;1985985;-72
2021/06/18 01:20:48;;;;;;;5.61;2.06;;;;;;;19.22;58.60;99773.15;380601;105;1962938;-72
2021/06/18 01:21:59;;;;;;;4.80;2.15;;;;;;;19.21;58.55;99771.51;370355;105;2963941;-72
2021/06/18 01:23:09;;;;;;;3.87;2.18;;;;;;;19.19;58.50;99776.41;323174;106;2175229;-73
2021/06/18 01:24:34;;;;;;;5.76;2.59;;;;;;;19.27;58.44;99773.20;378577;105;1984634;-73
2021/06/18 01:25:49;;;;;;;5.19;2.27;;;;;;;19.14;58.40;99770.89;355404;110;2900841;-73
2021/06/18 01:27:33;;;;;;;6.57;2.42;;;;;;;19.24;58.59;99773.72;393626;104;1986924;-74
2021/06/18 01:28:58;;;;;;;6.11;2.67;;;;;;;19.09;58.66;99768.92;370630;104;1961886;-71
2021/06/18 01:30:22;;;;;;;6.32;2.09;;;;;;;19.20;58.75;99766.28;363816;103;2466067;-71
2021/06/18 01:31:43;;;;;;;3.98;2.07;;;;;;;19.08;58.66;99770.02;367379;107;1962042;-73
2021/06/18 01:33:14;;;;;;;5.02;2.18;;;;;;;19.08;58.57;99771.94;323444;108;2771842;-71
2021/06/18 01:34:32;;;;;;;5.81;2.33;;;;;;;19.17;58.43;99767.63;394046;104;1985957;-72
2021/06/18 01:35:50;;;;;;;5.57;1.86;;;;;;;19.15;58.42;99763.49;393802;104;1985922;-73
2021/06/18 01:37:17;;;;;;;5.94;2.49;;;;;;;19.04;58.35;99768.05;317131;106;2219086;-73
2021/06/18 01:38:32;;;;;;;5.54;2.34;;;;;;;19.13;58.33;99768.39;386710;103;1985988;-73
2021/06/18 01:39:40;;;;;;;8.42;2.61;;;;;;;19.02;58.22;99767.48;373968;105;1962962;-72
2021/06/18 01:41:08;;;;;;;5.97;1.92;;;;;;;19.00;58.17;99770.48;292389;110;2345938;-72
2021/06/18 01:42:17;;;;;;;5.79;2.17;;;;;;;18.98;58.23;99769.91;320549;107;2403901;-73
2021/06/18 01:43:32;;;;;;;6.10;2.24;;;;;;;19.07;58.37;99765.61;368017;104;1985939;-73
2021/06/18 01:44:40;;;;;;;5.73;2.32;;;;;;;18.93;58.25;99767.13;379435;105;1962983;-72
2021/06/18 01:45:48;;;;;;;6.41;2.12;;;;;;;18.94;58.24;99760.55;356520;105;1961895;-71
2021/06/18 01:46:57;;;;;;;5.32;2.28;;;;;;;18.93;58.22;99769.86;377873;106;1962006;-72
2021/06/18 01:48:05;;;;;;;8.49;2.24;;;;;;;18.93;58.24;99769.04;380387;106;1961945;-72
2021/06/18 01:49:19;;;;;;;4.28;1.90;;;;;;;19.03;58.23;99761.75;386009;106;1985867;-74
2021/06/18 01:50:27;;;;;;;4.97;2.31;;;;;;;18.91;58.19;99761.08;356897;109;2893009;-73
2021/06/18 01:51:41;;;;;;;6.93;2.47;;;;;;;19.01;58.13;99761.18;393102;103;1985930;-74
2021/06/18 01:52:53;;;;;;;5.57;2.37;;;;;;;18.89;58.14;99769.56;312781;109;2208041;-74
2021/06/18 01:54:08;;;;;;;5.01;1.91;;;;;;;18.99;58.19;99757.87;385844;105;1987987;-73
2021/06/18 01:55:15;;;;;;;6.69;1.97;;;;;;;18.87;58.07;99757.22;365568;107;1962836;-73
2021/06/18 01:56:41;;;;;;;9.89;2.29;;;;;;;18.87;58.08;99751.74;365943;110;1961948;-74
2021/06/18 01:57:58;;;;;;;4.71;1.88;;;;;;;18.98;57.86;99756.23;392683;104;1994931;-73
2021/06/18 01:59:05;;;;;;;4.74;1.88;;;;;;;18.86;57.93;99756.37;351797;105;1962016;-73
2021/06/18 02:00:20;;;;;;;7.64;2.47;;;;;;;18.97;57.94;99765.50;357462;106;1995098;-75
2021/06/18 02:01:30;;;;;;;4.19;1.95;;;;;;;18.86;57.99;99752.81;366976;109;1962956;-73
2021/06/18 02:02:57;;;;;;;7.00;1.59;;;;;;;18.86;57.75;99747.34;333319;109;1966005;-75
2021/06/18 02:04:13;;;;;;;4.02;1.90;;;;;;;18.95;57.65;99751.27;367742;108;1985975;-73
2021/06/18 02:05:20;;;;;;;4.48;2.12;;;;;;;18.84;57.66;99747.61;355513;110;2947026;-74
2021/06/18 02:06:29;;;;;;;6.07;2.03;;;;;;;18.83;57.47;99743.20;364626;110;1962024;-74
2021/06/18 02:07:37;;;;;;;4.73;1.93;;;;;;;18.83;57.47;99747.86;322104;112;2677877;-74
2021/06/18 02:08:53;;;;;;;7.01;2.03;;;;;;;18.95;57.53;99753.19;396444;104;1985972;-73
2021/06/18 02:10:01;;;;;;;7.52;1.93;;;;;;;18.85;57.42;99745.70;374246;107;1962055;-74
2021/06/18 02:11:14;;;;;;;10.91;2.03;;;;;;;18.95;57.37;99754.02;395469;104;1986056;-74
2021/06/18 02:12:21;;;;;;;5.11;2.07;;;;;;;18.84;57.33;99749.50;372903;107;1961989;-74
2021/06/18 02:13:35;;;;;;;5.82;1.63;;;;;;;18.95;57.32;99744.98;378407;108;1986083;-73
2021/06/18 02:14:43;;;;;;;5.23;1.74;;;;;;;18.84;57.28;99749.50;327147;111;2562052;-74
2021/06/18 02:16:08;;;;;;;6.34;1.59;;;;;;;18.85;57.23;99754.73;333230;110;2448983;-72
2021/06/18 02:17:16;;;;;;;10.22;1.83;;;;;;;18.83;57.29;99751.41;360698;110;1962046;-74
2021/06/18 02:18:31;;;;;;;7.29;1.98;;;;;;;18.94;57.28;99749.60;384951;105;1987949;-73
2021/06/18 02:19:39;;;;;;;5.62;2.11;;;;;;;18.82;57.29;99741.56;365467;107;1964029;-74
2021/06/18 02:20:46;;;;;;;8.01;2.06;;;;;;;18.82;57.24;99741.56;362787;111;1961998;-72
2021/06/18 02:21:54;;;;;;;5.92;1.98;;;;;;;18.83;57.27;99743.20;361306;108;1962004;-73
2021/06/18 02:23:09;;;;;;;5.74;2.06;;;;;;;18.96;57.19;99741.14;385101;105;1985826;-72
2021/06/18 02:24:17;;;;;;;5.73;1.87;;;;;;;18.83;57.15;99743.20;365324;109;1961949;-72
2021/06/18 02:25:31;;;;;;;6.59;1.86;;;;;;;18.94;57.20;99741.39;378683;104;1987009;-75
2021/06/18 02:26:40;;;;;;;5.13;1.90;;;;;;;18.83;57.15;99748.67;350678;107;2891896;-74
2021/06/18 02:28:06;;;;;;;6.62;2.04;;;;;;;18.82;57.11;99751.69;358785;109;2953994;-73
2021/06/18 02:29:19;;;;;;;4.61;1.65;;;;;;;18.96;57.12;99758.39;393440;103;1986037;-74
2021/06/18 02:30:26;;;;;;;5.76;2.19;;;;;;;18.84;57.12;99761.30;373091;105;1961956;-74
2021/06/18 02:31:35;;;;;;;4.71;1.76;;;;;;;18.85;57.13;99759.38;371948;107;1960810;-74
2021/06/18 02:32:52;;;;;;;7.08;1.70;;;;;;;18.96;57.24;99760.31;387508;106;1984818;-74
2021/06/18 02:33:57;;;;;;;6.39;2.07;;;;;;;18.85;57.19;99762.12;368862;108;1960866;-74
2021/06/18 02:35:10;;;;;;;4.04;1.59;;;;;;;18.98;57.18;99760.88;380528;107;1984793;-73
2021/06/18 02:36:17;;;;;;;5.22;1.66;;;;;;;18.88;57.17;99759.68;314054;111;2135015;-74
2021/06/18 02:37:23;;;;;;;4.72;2.39;;;;;;;18.89;57.16;99757.77;360785;111;1962009;-74
2021/06/18 02:38:36;;;;;;;5.05;1.83;;;;;;;19.01;57.12;99769.39;384622;104;2968974;-75
2021/06/18 02:39:43;;;;;;;6.46;2.78;;;;;;;18.89;57.14;99769.56;340471;105;2418904;-73
2021/06/18 02:40:49;;;;;;;5.13;1.80;;;;;;;18.91;57.15;99776.68;374709;106;1961849;-74
2021/06/18 02:41:54;;;;;;;6.27;2.56;;;;;;;18.92;57.16;99779.17;374688;105;1962999;-71
2021/06/18 02:43:08;;;;;;;5.17;1.85;;;;;;;19.04;57.28;99765.31;353538;103;2686039;-72
2021/06/18 02:44:13;;;;;;;7.22;2.58;;;;;;;18.94;57.27;99776.98;364394;107;1962996;-72
2021/06/18 02:45:18;;;;;;;6.16;2.37;;;;;;;18.93;57.29;99769.86;361882;107;1962013;-73
2021/06/18 02:46:35;;;;;;;5.42;2.22;;;;;;;18.95;57.21;99775.09;377422;107;1961997;-71
2021/06/18 02:48:00;;;;;;;8.20;2.26;;;;;;;19.04;57.12;99773.52;383565;106;1985910;-72
2021/06/18 02:49:15;;;;;;;6.86;2.47;;;;;;;19.03;57.12;99769.97;395231;104;1986300;-73
2021/06/18 02:50:45;;;;;;;12.26;3.37;;;;;;;18.94;57.09;99773.42;375957;106;1961915;-72
2021/06/18 02:51:54;;;;;;;5.05;2.46;;;;;;;18.96;57.07;99771.26;377020;106;1962024;-73
2021/06/18 02:53:28;;;;;;;6.56;2.76;;;;;;;19.10;56.94;99778.80;380431;103;2853941;-73
2021/06/18 02:54:46;;;;;;;11.86;2.26;;;;;;;19.00;56.86;99775.97;362951;111;1962005;-72
2021/06/18 02:56:05;;;;;;;7.12;2.24;;;;;;;19.12;56.87;99773.05;394073;103;1986018;-73
2021/06/18 02:57:18;;;;;;;;;;;;;;;19.03;56.73;99780.92;364386;106;1962082;-72
2021/06/18 02:58:37;;;;;;;5.43;2.17;;;;;;;19.03;56.70;99771.88;372224;107;1961976;-73
2021/06/18 02:59:53;;;;;;;7.73;2.14;;;;;;;19.18;56.59;99779.39;393999;103;1985864;-72
2021/06/18 03:01:02;;;;;;;7.38;2.17;;;;;;;19.08;56.53;99785.63;373611;107;1962025;-72
2021/06/18 03:02:12;;;;;;;8.46;2.14;;;;;;;19.10;56.53;99780.69;372904;107;1962000;-73
2021/06/18 03:03:35;;;;;;;5.06;2.10;;;;;;;19.22;56.47;99786.84;375500;109;1986030;-72
2021/06/18 03:04:44;;;;;;;5.83;2.17;;;;;;;19.12;56.40;99784.00;357349;111;1961963;-74
2021/06/18 03:06:00;;;;;;;7.89;2.42;;;;;;;19.25;56.37;99783.58;388224;106;1986009;-73
2021/06/18 03:07:14;;;;;;;7.21;2.38;;;;;;;19.15;56.35;99782.66;368248;108;1961994;-74
2021/06/18 03:08:41;;;;;;;6.78;2.14;;;;;;;19.17;56.24;99783.23;313112;108;2140022;-74
2021/06/18 03:09:57;;;;;;;6.59;2.32;;;;;;;19.29;56.17;99783.88;392984;104;1986954;-72
2021/06/18 03:11:04;;;;;;;7.56;2.48;;;;;;;19.19;56.07;99783.81;378078;107;1961974;-70
2021/06/18 03:12:20;;;;;;;6.33;2.44;;;;;;;19.29;56.14;99783.88;391955;104;1987209;-72
2021/06/18 03:13:32;;;;;;;5.02;1.91;;;;;;;19.19;56.04;99781.89;369781;107;1962021;-71
2021/06/18 03:14:59;;;;;;;6.46;2.27;;;;;;;19.21;56.05;99785.20;361625;109;1962972;-73
2021/06/18 03:16:15;;;;;;;3.87;1.95;;;;;;;19.32;55.83;99784.20;394786;101;1987879;-73
2021/06/18 03:17:22;;;;;;;9.06;2.42;;;;;;;19.22;55.77;99783.28;385848;103;1964892;-73
2021/06/18 03:18:30;;;;;;;9.53;2.26;;;;;;;19.22;55.81;99786.84;382827;104;1961961;-74
2021/06/18 03:19:45;;;;;;;5.51;2.16;;;;;;;19.35;55.76;99784.77;393073;104;1986021;-73
2021/06/18 03:20:54;;;;;;;4.06;1.68;;;;;;;19.24;55.76;99786.59;321646;106;2161931;-72
2021/06/18 03:22:02;;;;;;;5.96;2.06;;;;;;;19.26;55.65;99789.88;375138;106;1962010;-71
2021/06/18 03:23:17;;;;;;;7.16;1.85;;;;;;;19.39;55.50;99789.44;393070;104;1987962;-73
2021/06/18 03:24:23;;;;;;;4.82;1.86;;;;;;;19.30;55.44;99791.02;376091;107;1962040;-73
2021/06/18 03:25:37;;;;;;;5.34;1.95;;;;;;;19.43;55.50;99790.59;375265;106;2867969;-73
2021/06/18 03:26:43;;;;;;;9.08;2.12;;;;;;;19.33;55.41;99791.31;365206;110;1962678;-72
2021/06/18 03:28:10;;;;;;;8.73;1.93;;;;;;;19.36;55.24;99800.11;295197;113;2278167;-72
2021/06/18 03:29:18;;;;;;;5.79;2.26;;;;;;;19.35;55.25;99796.55;356425;112;1962070;-74
2021/06/18 03:30:32;;;;;;;4.84;1.99;;;;;;;19.45;55.37;99787.56;387685;106;1987061;-73
2021/06/18 03:31:40;;;;;;;7.15;1.92;;;;;;;19.36;55.11;99791.89;321853;109;2112003;-72
2021/06/18 03:32:49;;;;;;;6.44;1.99;;;;;;;19.37;55.04;99790.79;363218;110;1964035;-73
2021/06/18 03:34:01;;;;;;;7.89;2.52;;;;;;;19.45;55.08;99788.42;405487;101;1987104;-73
2021/06/18 03:35:08;;;;;;;8.87;3.44;;;;;;;19.37;55.04;99799.86;384070;103;1961959;-73
2021/06/18 03:36:20;;;;;;;10.12;3.69;;;;;;;19.39;55.05;99794.92;336820;105;2091943;-75
2021/06/18 03:37:24;;;;;;;5.08;1.52;;;;;;;19.39;54.93;99792.18;383477;103;1961989;-73
2021/06/18 03:38:37;;;;;;;5.73;1.74;;;;;;;19.53;54.80;99789.86;390200;106;1984958;-73
2021/06/18 03:39:44;;;;;;;8.51;2.56;;;;;;;19.42;54.84;99790.83;369265;107;1963971;-73
2021/06/18 03:40:50;;;;;;;6.44;1.93;;;;;;;19.43;54.75;99789.77;312510;109;2186999;-74
2021/06/18 03:42:03;;;;;;;6.94;1.79;;;;;;;19.56;54.67;99786.59;393582;103;1972954;-73
2021/06/18 03:43:10;;;;;;;13.91;4.09;;;;;;;19.46;54.71;99781.84;378184;105;1962054;-73
2021/06/18 03:44:23;;;;;;;4.05;1.61;;;;;;;19.61;54.59;99781.14;393575;103;1974104;-73
2021/06/18 03:45:40;;;;;;;4.92;1.74;;;;;;;19.67;54.45;99784.77;396476;104;1986025;-73
2021/06/18 03:47:06;;;;;;;5.10;2.24;;;;;;;19.55;54.32;99790.39;371275;107;1961984;-75
2021/06/18 03:48:21;;;;;;;6.71;3.13;;;;;;;19.67;54.26;99795.73;395174;104;1985997;-74
2021/06/18 03:49:47;;;;;;;11.39;4.99;;;;;;;19.58;54.27;99791.78;369031;104;1960986;-73
2021/06/18 03:50:52;;;;;;;6.53;2.26;;;;;;;19.61;54.25;99794.84;357775;106;1962029;-75
2021/06/18 03:52:05;;;;;;;11.78;2.64;;;;;;;19.76;54.03;99783.19;396090;104;1986014;-75
2021/06/18 03:53:14;;;;;;;7.61;2.74;;;;;;;19.67;53.90;99785.59;375515;106;1963007;-74
2021/06/18 03:54:26;;;;;;;8.11;2.50;;;;;;;19.78;53.85;99782.93;385724;106;1985970;-73
2021/06/18 03:55:32;;;;;;;7.66;2.71;;;;;;;19.69;53.89;99793.56;367007;109;1961923;-73
2021/06/18 03:56:48;;;;;;;5.93;1.94;;;;;;;19.83;53.67;99788.45;386793;105;1986965;-73
2021/06/18 03:57:54;;;;;;;6.21;1.94;;;;;;;19.72;53.67;99795.78;342011;110;1962015;-74
2021/06/18 03:59:21;;;;;;;6.82;2.55;;;;;;;19.74;53.69;99788.09;351333;110;2848031;-73
2021/06/18 04:00:38;;;;;;;5.19;1.85;;;;;;;19.91;53.41;99793.44;388760;103;2897875;-74
2021/06/18 04:01:48;;;;;;;7.87;2.56;;;;;;;19.82;53.31;99789.52;351344;105;1963854;-74
2021/06/18 04:02:55;;;;;;;6.06;1.93;;;;;;;19.84;53.36;99790.91;364417;107;2952021;-73
2021/06/18 04:04:08;;;;;;;11.04;3.02;;;;;;;20.00;53.27;99789.09;397972;104;1964912;-74
2021/06/18 04:05:16;;;;;;;9.48;2.49;;;;;;;19.89;53.35;99792.87;381343;105;1962911;-73
2021/06/18 04:06:31;;;;;;;5.62;1.97;;;;;;;20.03;53.16;99790.48;396320;103;1986003;-74
2021/06/18 04:07:37;;;;;;;8.89;2.58;;;;;;;19.93;52.97;99794.82;366157;107;1962000;-74
2021/06/18 04:08:51;;;;;;;7.23;2.32;;;;;;;20.04;52.93;99797.63;398801;101;2072004;-74
2021/06/18 04:09:58;;;;;;;5.20;1.96;;;;;;;19.95;52.90;99800.02;380203;103;1962082;-75
2021/06/18 04:11:11;;;;;;;4.96;1.92;;;;;;;20.08;52.93;99806.96;395427;103;1964944;-74
2021/06/18 04:12:18;;;;;;;8.14;1.97;;;;;;;19.96;52.84;99799.77;342596;105;1966047;-73
2021/06/18 04:13:43;;;;;;;5.37;2.01;;;;;;;19.96;52.75;99797.03;370104;106;2958062;-75
2021/06/18 04:14:56;;;;;;;9.62;2.42;;;;;;;20.12;52.97;99802.61;387572;106;1985969;-74
2021/06/18 04:16:03;;;;;;;4.70;1.67;;;;;;;20.04;52.86;99801.19;367649;108;1961904;-72
2021/06/18 04:17:17;;;;;;;7.25;3.32;;;;;;;20.17;52.90;99797.98;386925;106;1971911;-72
2021/06/18 04:18:25;;;;;;;7.65;2.48;;;;;;;20.08;52.80;99801.48;328597;109;2698113;-73
2021/06/18 04:19:50;;;;;;;7.97;2.80;;;;;;;20.12;52.79;99802.61;333557;109;2607996;-73
2021/06/18 04:21:05;;;;;;;10.60;2.44;;;;;;;20.29;52.54;99802.42;394125;104;1985888;-73
2021/06/18 04:22:22;;;;;;;9.24;2.91;;;;;;;20.33;52.51;99807.11;405134;101;1985992;-74
2021/06/18 04:23:30;;;;;;;6.80;3.86;;;;;;;20.25;52.46;99807.62;382643;105;1965023;-73
2021/06/18 04:24:42;;;;;;;9.33;3.26;;;;;;;20.40;52.50;99813.19;396610;104;1985992;-75
2021/06/18 04:25:47;;;;;;;6.47;2.66;;;;;;;20.32;52.39;99812.85;380813;105;1961051;-74
2021/06/18 04:27:11;;;;;;;7.08;1.85;;;;;;;20.35;52.24;99820.55;371589;105;1962796;-75
2021/06/18 04:28:24;;;;;;;5.13;1.97;;;;;;;20.47;52.31;99803.87;382806;106;2071013;-73
2021/06/18 04:29:30;;;;;;;6.57;2.03;;;;;;;20.38;52.18;99811.80;366283;110;1965635;-73
2021/06/18 04:30:42;;;;;;;11.61;3.28;;;;;;;20.53;52.19;99816.52;390213;104;2073049;-75
2021/06/18 04:31:48;;;;;;;8.97;2.38;;;;;;;20.47;52.19;99814.86;377817;107;1962003;-74
2021/06/18 04:33:04;;;;;;;7.94;2.84;;;;;;;20.63;51.98;99809.17;393910;103;1986029;-73
2021/06/18 04:34:09;;;;;;;7.73;2.83;;;;;;;20.55;51.90;99811.63;370509;108;1961986;-74
2021/06/18 04:35:33;;;;;;;16.56;5.61;;;;;;;20.57;51.81;99814.93;362534;109;1961953;-74
2021/06/18 04:36:46;;;;;;;10.89;2.98;;;;;;;20.71;51.74;99807.84;395468;103;1985859;-74
2021/06/18 04:37:52;;;;;;;12.29;4.04;;;;;;;20.63;51.68;99811.11;368713;109;1961900;-74
2021/06/18 04:39:06;;;;;;;7.13;1.87;;;;;;;20.77;51.67;99811.42;392759;104;1965870;-74
2021/06/18 04:40:13;;;;;;;7.83;1.66;;;;;;;20.69;51.75;99806.45;375956;105;1961865;-74
2021/06/18 04:41:19;;;;;;;7.88;3.29;;;;;;;20.73;51.71;99808.40;363050;106;1961973;-74
2021/06/18 04:42:32;;;;;;;7.52;2.44;;;;;;;20.91;51.59;99809.83;391718;104;1961015;-74
2021/06/18 04:43:37;;;;;;;10.75;3.57;;;;;;;20.85;51.53;99809.00;370054;108;1968944;-73
2021/06/18 04:44:50;;;;;;;8.86;2.91;;;;;;;21.00;51.27;99802.70;343088;103;2208869;-73
2021/06/18 04:45:56;;;;;;;7.78;2.29;;;;;;;20.94;51.21;99811.21;363285;107;1961885;-75
2021/06/18 04:47:20;;;;;;;9.52;2.61;;;;;;;20.97;51.05;99810.66;355869;107;2858938;-74
2021/06/18 04:49:03;;;;;;;9.16;2.79;;;;;;;21.11;50.94;99813.70;397152;103;1986079;-74
2021/06/18 04:50:09;;;;;;;9.89;3.56;;;;;;;21.02;50.95;99814.24;362783;109;1964015;-74
2021/06/18 04:51:25;;;;;;;6.51;2.11;;;;;;;21.19;50.82;99815.91;393354;103;1984820;-74
2021/06/18 04:52:32;;;;;;;8.78;2.49;;;;;;;21.11;50.62;99816.45;336425;105;2667910;-74
2021/06/18 04:53:57;;;;;;;8.06;2.57;;;;;;;21.13;50.56;99819.77;336326;105;2654972;-73
2021/06/18 04:56:28;;;;;;;7.22;2.47;;;;;;;21.29;50.40;99814.00;395156;104;1985940;-74
2021/06/18 04:57:52;;;;;;;7.13;2.88;;;;;;;21.19;50.44;99813.98;377336;106;1964038;-75
2021/06/18 04:58:59;;;;;;;7.39;2.26;;;;;;;21.23;50.44;99812.36;344798;106;2538051;-75
2021/06/18 05:00:05;;;;;;;8.39;3.05;;;;;;;21.26;50.46;99810.98;378481;106;1961972;-74
2021/06/18 05:01:11;;;;;;;8.74;2.29;;;;;;;21.29;50.38;99799.45;376252;106;1961984;-75
2021/06/18 05:02:23;;;;;;;7.21;2.29;;;;;;;21.45;50.21;99803.06;381667;106;2079092;-73
2021/06/18 05:03:28;;;;;;;6.28;2.78;;;;;;;21.36;50.10;99804.69;357667;110;2888034;-73
2021/06/18 05:04:34;;;;;;;7.32;1.85;;;;;;;21.37;50.07;99803.58;356055;110;2924929;-74
2021/06/18 05:05:46;;;;;;;6.61;2.11;;;;;;;21.50;50.11;99808.56;385590;106;1986022;-75
2021/06/18 05:06:58;;;;;;;7.29;2.56;;;;;;;21.54;50.05;99806.08;394215;104;1985982;-75
2021/06/18 05:08:22;;;;;;;7.38;2.46;;;;;;;21.44;50.20;99809.67;382250;104;1962078;-75
2021/06/18 05:09:36;;;;;;;8.46;3.00;;;;;;;21.61;50.29;99793.70;349574;104;2755954;-74
2021/06/18 05:10:42;;;;;;;7.54;2.92;;;;;;;21.56;50.30;99803.88;375705;106;1964965;-74
2021/06/18 05:11:54;;;;;;;10.95;3.41;;;;;;;21.70;49.95;99797.56;388369;106;1985987;-72
2021/06/18 05:12:59;;;;;;;7.72;2.94;;;;;;;21.61;49.87;99801.95;372669;107;1961968;-74
2021/06/18 05:14:23;;;;;;;6.14;2.10;;;;;;;21.64;49.78;99800.58;364674;110;1962027;-75
2021/06/18 05:15:35;;;;;;;11.68;2.64;;;;;;;21.76;49.51;99795.63;397916;104;1984954;-74
2021/06/18 05:16:42;;;;;;;9.39;2.41;;;;;;;21.66;49.58;99804.70;381028;105;1960884;-75
2021/06/18 05:17:54;;;;;;;6.98;2.03;;;;;;;21.76;49.66;99798.38;397789;101;1963844;-74
2021/06/18 05:18:59;;;;;;;10.13;2.69;;;;;;;21.66;49.62;99799.20;380654;105;1961863;-75
2021/06/18 05:20:13;;;;;;;6.32;1.94;;;;;;;21.79;49.86;99795.07;387066;105;1984693;-75
2021/06/18 05:21:19;;;;;;;12.53;5.93;;;;;;;21.71;49.81;99793.70;322594;109;2015858;-74
2021/06/18 05:22:44;;;;;;;10.84;3.35;;;;;;;21.73;49.89;99799.75;358324;110;1960862;-76
2021/06/18 05:23:56;;;;;;;8.67;2.32;;;;;;;21.93;49.87;99798.07;393757;104;1960951;-74
2021/06/18 05:25:01;;;;;;;10.76;3.81;;;;;;;21.85;49.85;99793.95;378080;107;1968944;-74
2021/06/18 05:26:17;;;;;;;9.02;3.02;;;;;;;22.01;49.80;99782.93;383375;106;1984962;-74
2021/06/18 05:27:23;;;;;;;6.74;2.49;;;;;;;21.91;49.85;99795.62;362916;107;1963018;-74
2021/06/18 05:28:41;;;;;;;7.99;2.58;;;;;;;22.06;49.64;99786.48;344732;104;2416335;-76
2021/06/18 05:29:47;;;;;;;11.62;2.98;;;;;;;21.98;49.48;99784.31;346129;108;1962049;-73
2021/06/18 05:30:59;;;;;;;10.20;3.12;;;;;;;22.10;49.47;99787.59;379037;104;1984945;-74
2021/06/18 05:32:07;;;;;;;9.43;3.01;;;;;;;22.03;49.54;99784.30;352794;113;1962037;-74
2021/06/18 05:33:19;;;;;;;11.51;4.92;;;;;;;22.22;49.53;99789.23;392437;104;1962127;-74
2021/06/18 05:34:32;;;;;;;9.21;3.24;;;;;;;22.25;49.29;99786.73;389588;106;1985927;-73
2021/06/18 05:35:55;;;;;;;9.57;4.28;;;;;;;22.16;49.31;99785.64;374019;107;1960891;-74
2021/06/18 05:37:08;;;;;;;12.04;4.25;;;;;;;22.31;49.23;99782.88;372942;106;2892053;-74
2021/06/18 05:38:14;;;;;;;13.41;4.02;;;;;;;22.21;49.05;99785.66;342480;111;2867022;-74